sensor_id;sensor_type;location;lat;lon;timestamp;P1;durP1;ratioP1;P2;durP2;ratioP2
44145;SDS011;29809;52.432;4.780;2023-03-03T00:01:19;3.17;;;2.65;;
44145;SDS011;29809;52.432;4.780;2023-03-03T00:03:44;3.38;;;2.80;;
44145;SDS011;29809;52.432;4.780;2023-03-03T00:06:11;4.35;;;2.47;;
44145;SDS011;29809;52.432;4.780;2023-03-03T00:08:36;2.97;;;2.67;;
44145;SDS011;29809;52.432;4.780;2023-03-03T00:11:01;2.67;;;2.45;;
44145;SDS011;29809;52.432;4.780;2023-03-03T00:13:30;2.80;;;2.60;;
44145;SDS011;29809;52.432;4.780;2023-03-03T00:16:04;2.92;;;2.42;;
44145;SDS011;29809;52.432;4.780;2023-03-03T00:18:35;2.25;;;2.05;;
44145;SDS011;29809;52.432;4.780;2023-03-03T00:21:01;2.53;;;2.28;;
44145;SDS011;29809;52.432;4.780;2023-03-03T00:23:30;2.85;;;2.50;;
44145;SDS011;29809;52.432;4.780;2023-03-03T00:25:59;2.90;;;2.10;;
44145;SDS011;29809;52.432;4.780;2023-03-03T00:28:28;2.95;;;2.45;;
44145;SDS011;29809;52.432;4.780;2023-03-03T00:30:55;3.88;;;2.80;;
44145;SDS011;29809;52.432;4.780;2023-03-03T00:33:54;2.45;;;2.25;;
44145;SDS011;29809;52.432;4.780;2023-03-03T00:38:41;2.75;;;2.30;;
44145;SDS011;29809;52.432;4.780;2023-03-03T00:41:25;2.63;;;2.25;;
44145;SDS011;29809;52.432;4.780;2023-03-03T00:43:51;3.08;;;2.03;;
44145;SDS011;29809;52.432;4.780;2023-03-03T00:46:17;3.47;;;2.60;;
44145;SDS011;29809;52.432;4.780;2023-03-03T00:48:44;2.35;;;2.15;;
44145;SDS011;29809;52.432;4.780;2023-03-03T00:51:31;2.00;;;1.80;;
44145;SDS011;29809;52.432;4.780;2023-03-03T00:53:55;2.55;;;2.13;;
44145;SDS011;29809;52.432;4.780;2023-03-03T00:56:21;2.88;;;2.10;;
44145;SDS011;29809;52.432;4.780;2023-03-03T00:58:46;2.53;;;2.30;;
44145;SDS011;29809;52.432;4.780;2023-03-03T01:01:12;5.03;;;2.28;;
44145;SDS011;29809;52.432;4.780;2023-03-03T01:03:38;2.80;;;2.05;;
44145;SDS011;29809;52.432;4.780;2023-03-03T01:06:03;2.60;;;1.88;;
44145;SDS011;29809;52.432;4.780;2023-03-03T01:08:28;2.83;;;2.05;;
44145;SDS011;29809;52.432;4.780;2023-03-03T01:10:55;1.88;;;1.77;;
44145;SDS011;29809;52.432;4.780;2023-03-03T01:13:22;1.75;;;1.52;;
44145;SDS011;29809;52.432;4.780;2023-03-03T01:15:47;2.65;;;1.73;;
44145;SDS011;29809;52.432;4.780;2023-03-03T01:18:13;1.52;;;1.42;;
44145;SDS011;29809;52.432;4.780;2023-03-03T01:20:38;1.95;;;1.40;;
44145;SDS011;29809;52.432;4.780;2023-03-03T01:23:04;1.77;;;1.67;;
44145;SDS011;29809;52.432;4.780;2023-03-03T01:25:29;1.92;;;1.73;;
44145;SDS011;29809;52.432;4.780;2023-03-03T01:27:55;2.53;;;1.52;;
44145;SDS011;29809;52.432;4.780;2023-03-03T01:30:20;1.60;;;1.50;;
44145;SDS011;29809;52.432;4.780;2023-03-03T01:32:46;1.70;;;1.60;;
44145;SDS011;29809;52.432;4.780;2023-03-03T01:35:11;1.65;;;1.55;;
44145;SDS011;29809;52.432;4.780;2023-03-03T01:37:36;2.40;;;1.70;;
44145;SDS011;29809;52.432;4.780;2023-03-03T01:40:03;1.52;;;1.42;;
44145;SDS011;29809;52.432;4.780;2023-03-03T01:42:29;1.65;;;1.55;;
44145;SDS011;29809;52.432;4.780;2023-03-03T01:50:25;2.42;;;1.50;;
44145;SDS011;29809;52.432;4.780;2023-03-03T01:52:52;1.33;;;1.23;;
44145;SDS011;29809;52.432;4.780;2023-03-03T01:55:22;2.50;;;1.40;;
44145;SDS011;29809;52.432;4.780;2023-03-03T01:57:55;1.65;;;1.40;;
44145;SDS011;29809;52.432;4.780;2023-03-03T02:00:22;2.08;;;1.30;;
44145;SDS011;29809;52.432;4.780;2023-03-03T02:02:47;1.70;;;1.42;;
44145;SDS011;29809;52.432;4.780;2023-03-03T02:05:13;1.35;;;1.25;;
44145;SDS011;29809;52.432;4.780;2023-03-03T02:07:38;1.58;;;1.20;;
44145;SDS011;29809;52.432;4.780;2023-03-03T02:12:47;1.33;;;1.23;;
44145;SDS011;29809;52.432;4.780;2023-03-03T02:15:26;1.27;;;1.17;;
44145;SDS011;29809;52.432;4.780;2023-03-03T02:17:53;1.27;;;1.17;;
44145;SDS011;29809;52.432;4.780;2023-03-03T02:20:34;1.77;;;1.20;;
44145;SDS011;29809;52.432;4.780;2023-03-03T02:23:10;1.23;;;1.02;;
44145;SDS011;29809;52.432;4.780;2023-03-03T02:25:47;1.60;;;1.23;;
44145;SDS011;29809;52.432;4.780;2023-03-03T02:28:13;1.38;;;1.27;;
44145;SDS011;29809;52.432;4.780;2023-03-03T02:30:39;1.20;;;1.10;;
44145;SDS011;29809;52.432;4.780;2023-03-03T02:33:04;1.35;;;1.10;;
44145;SDS011;29809;52.432;4.780;2023-03-03T02:35:31;1.35;;;1.20;;
44145;SDS011;29809;52.432;4.780;2023-03-03T02:37:58;1.00;;;0.95;;
44145;SDS011;29809;52.432;4.780;2023-03-03T02:40:26;1.60;;;1.25;;
44145;SDS011;29809;52.432;4.780;2023-03-03T02:42:53;1.10;;;0.80;;
44145;SDS011;29809;52.432;4.780;2023-03-03T02:45:19;1.20;;;1.08;;
44145;SDS011;29809;52.432;4.780;2023-03-03T02:47:48;1.65;;;1.20;;
44145;SDS011;29809;52.432;4.780;2023-03-03T02:50:14;0.73;;;0.73;;
44145;SDS011;29809;52.432;4.780;2023-03-03T02:52:39;1.48;;;1.10;;
44145;SDS011;29809;52.432;4.780;2023-03-03T02:55:05;0.98;;;0.98;;
44145;SDS011;29809;52.432;4.780;2023-03-03T02:57:30;1.25;;;0.95;;
44145;SDS011;29809;52.432;4.780;2023-03-03T02:59:55;1.15;;;1.00;;
44145;SDS011;29809;52.432;4.780;2023-03-03T03:02:21;1.05;;;0.95;;
44145;SDS011;29809;52.432;4.780;2023-03-03T03:04:46;1.88;;;0.73;;
44145;SDS011;29809;52.432;4.780;2023-03-03T03:07:11;0.90;;;0.90;;
44145;SDS011;29809;52.432;4.780;2023-03-03T03:09:36;1.05;;;0.98;;
44145;SDS011;29809;52.432;4.780;2023-03-03T03:12:01;1.02;;;0.90;;
44145;SDS011;29809;52.432;4.780;2023-03-03T03:14:27;1.13;;;0.80;;
44145;SDS011;29809;52.432;4.780;2023-03-03T03:16:52;1.00;;;0.90;;
44145;SDS011;29809;52.432;4.780;2023-03-03T03:19:17;1.33;;;0.80;;
44145;SDS011;29809;52.432;4.780;2023-03-03T03:21:43;1.33;;;0.90;;
44145;SDS011;29809;52.432;4.780;2023-03-03T03:24:08;1.00;;;0.90;;
44145;SDS011;29809;52.432;4.780;2023-03-03T03:26:33;0.95;;;0.95;;
44145;SDS011;29809;52.432;4.780;2023-03-03T03:28:58;0.70;;;0.70;;
44145;SDS011;29809;52.432;4.780;2023-03-03T03:31:24;2.35;;;0.90;;
44145;SDS011;29809;52.432;4.780;2023-03-03T03:33:49;1.73;;;0.90;;
44145;SDS011;29809;52.432;4.780;2023-03-03T03:36:16;0.70;;;0.70;;
44145;SDS011;29809;52.432;4.780;2023-03-03T03:38:41;1.55;;;0.70;;
44145;SDS011;29809;52.432;4.780;2023-03-03T03:41:06;1.08;;;0.60;;
44145;SDS011;29809;52.432;4.780;2023-03-03T03:43:32;1.25;;;0.60;;
44145;SDS011;29809;52.432;4.780;2023-03-03T03:45:57;1.48;;;0.95;;
44145;SDS011;29809;52.432;4.780;2023-03-03T03:48:22;0.57;;;0.57;;
44145;SDS011;29809;52.432;4.780;2023-03-03T03:50:48;0.95;;;0.85;;
44145;SDS011;29809;52.432;4.780;2023-03-03T03:53:13;0.60;;;0.60;;
44145;SDS011;29809;52.432;4.780;2023-03-03T03:55:38;1.13;;;0.90;;
44145;SDS011;29809;52.432;4.780;2023-03-03T03:58:04;1.10;;;0.50;;
44145;SDS011;29809;52.432;4.780;2023-03-03T04:00:29;0.82;;;0.80;;
44145;SDS011;29809;52.432;4.780;2023-03-03T04:02:54;1.02;;;0.75;;
44145;SDS011;29809;52.432;4.780;2023-03-03T04:05:19;0.95;;;0.68;;
44145;SDS011;29809;52.432;4.780;2023-03-03T04:07:45;0.77;;;0.77;;
44145;SDS011;29809;52.432;4.780;2023-03-03T04:10:13;0.80;;;0.80;;
44145;SDS011;29809;52.432;4.780;2023-03-03T04:12:38;2.08;;;0.93;;
44145;SDS011;29809;52.432;4.780;2023-03-03T04:15:07;0.85;;;0.70;;
44145;SDS011;29809;52.432;4.780;2023-03-03T04:17:33;0.60;;;0.60;;
44145;SDS011;29809;52.432;4.780;2023-03-03T04:19:58;0.80;;;0.80;;
44145;SDS011;29809;52.432;4.780;2023-03-03T04:22:23;1.05;;;0.90;;
44145;SDS011;29809;52.432;4.780;2023-03-03T04:24:48;0.75;;;0.75;;
44145;SDS011;29809;52.432;4.780;2023-03-03T04:27:14;0.90;;;0.70;;
44145;SDS011;29809;52.432;4.780;2023-03-03T04:29:39;1.00;;;0.85;;
44145;SDS011;29809;52.432;4.780;2023-03-03T04:32:05;0.98;;;0.80;;
44145;SDS011;29809;52.432;4.780;2023-03-03T04:34:33;0.70;;;0.70;;
44145;SDS011;29809;52.432;4.780;2023-03-03T04:36:59;1.40;;;0.98;;
44145;SDS011;29809;52.432;4.780;2023-03-03T04:39:24;0.63;;;0.63;;
44145;SDS011;29809;52.432;4.780;2023-03-03T04:41:51;0.82;;;0.68;;
44145;SDS011;29809;52.432;4.780;2023-03-03T04:44:16;0.85;;;0.68;;
44145;SDS011;29809;52.432;4.780;2023-03-03T04:46:41;0.70;;;0.70;;
44145;SDS011;29809;52.432;4.780;2023-03-03T04:49:06;2.05;;;0.70;;
44145;SDS011;29809;52.432;4.780;2023-03-03T04:51:33;0.90;;;0.73;;
44145;SDS011;29809;52.432;4.780;2023-03-03T04:53:58;0.80;;;0.67;;
44145;SDS011;29809;52.432;4.780;2023-03-03T04:56:23;0.52;;;0.52;;
44145;SDS011;29809;52.432;4.780;2023-03-03T04:58:48;0.70;;;0.70;;
44145;SDS011;29809;52.432;4.780;2023-03-03T05:01:16;0.60;;;0.60;;
44145;SDS011;29809;52.432;4.780;2023-03-03T05:03:43;0.73;;;0.70;;
44145;SDS011;29809;52.432;4.780;2023-03-03T05:06:08;0.68;;;0.68;;
44145;SDS011;29809;52.432;4.780;2023-03-03T05:08:34;0.98;;;0.77;;
44145;SDS011;29809;52.432;4.780;2023-03-03T05:10:59;1.23;;;1.13;;
44145;SDS011;29809;52.432;4.780;2023-03-03T05:13:25;1.52;;;1.00;;
44145;SDS011;29809;52.432;4.780;2023-03-03T05:15:54;1.08;;;0.93;;
44145;SDS011;29809;52.432;4.780;2023-03-03T05:18:20;0.75;;;0.70;;
44145;SDS011;29809;52.432;4.780;2023-03-03T05:20:45;0.90;;;0.90;;
44145;SDS011;29809;52.432;4.780;2023-03-03T05:23:11;2.27;;;0.97;;
44145;SDS011;29809;52.432;4.780;2023-03-03T05:25:36;0.70;;;0.70;;
44145;SDS011;29809;52.432;4.780;2023-03-03T05:28:02;1.17;;;0.95;;
44145;SDS011;29809;52.432;4.780;2023-03-03T05:30:28;1.15;;;1.00;;
44145;SDS011;29809;52.432;4.780;2023-03-03T05:32:54;1.00;;;0.98;;
44145;SDS011;29809;52.432;4.780;2023-03-03T05:35:19;1.58;;;1.10;;
44145;SDS011;29809;52.432;4.780;2023-03-03T05:37:45;1.10;;;0.90;;
44145;SDS011;29809;52.432;4.780;2023-03-03T05:40:12;1.20;;;0.93;;
44145;SDS011;29809;52.432;4.780;2023-03-03T05:42:38;1.20;;;1.10;;
44145;SDS011;29809;52.432;4.780;2023-03-03T05:45:03;1.40;;;1.30;;
44145;SDS011;29809;52.432;4.780;2023-03-03T05:47:28;2.97;;;1.40;;
44145;SDS011;29809;52.432;4.780;2023-03-03T05:49:53;5.38;;;1.48;;
44145;SDS011;29809;52.432;4.780;2023-03-03T05:52:19;1.63;;;1.30;;
44145;SDS011;29809;52.432;4.780;2023-03-03T05:54:44;1.40;;;1.30;;
44145;SDS011;29809;52.432;4.780;2023-03-03T05:57:09;1.85;;;1.30;;
44145;SDS011;29809;52.432;4.780;2023-03-03T05:59:35;2.03;;;1.70;;
44145;SDS011;29809;52.432;4.780;2023-03-03T06:02:00;1.55;;;1.42;;
44145;SDS011;29809;52.432;4.780;2023-03-03T06:04:25;3.40;;;1.85;;
44145;SDS011;29809;52.432;4.780;2023-03-03T06:06:50;1.58;;;1.38;;
44145;SDS011;29809;52.432;4.780;2023-03-03T06:09:16;8.95;;;2.95;;
44145;SDS011;29809;52.432;4.780;2023-03-03T06:11:43;117.15;;;34.20;;
44145;SDS011;29809;52.432;4.780;2023-03-03T06:14:08;116.75;;;31.70;;
44145;SDS011;29809;52.432;4.780;2023-03-03T06:16:33;69.78;;;24.15;;
44145;SDS011;29809;52.432;4.780;2023-03-03T06:18:58;51.55;;;21.85;;
44145;SDS011;29809;52.432;4.780;2023-03-03T06:21:25;65.65;;;21.65;;
44145;SDS011;29809;52.432;4.780;2023-03-03T06:23:50;61.30;;;18.55;;
44145;SDS011;29809;52.432;4.780;2023-03-03T06:26:16;57.40;;;18.55;;
44145;SDS011;29809;52.432;4.780;2023-03-03T06:28:41;51.35;;;18.85;;
44145;SDS011;29809;52.432;4.780;2023-03-03T06:31:18;50.15;;;17.20;;
44145;SDS011;29809;52.432;4.780;2023-03-03T06:33:44;41.30;;;15.18;;
44145;SDS011;29809;52.432;4.780;2023-03-03T06:36:09;35.95;;;13.30;;
44145;SDS011;29809;52.432;4.780;2023-03-03T06:38:35;35.38;;;12.55;;
44145;SDS011;29809;52.432;4.780;2023-03-03T06:41:00;30.75;;;12.07;;
44145;SDS011;29809;52.432;4.780;2023-03-03T06:43:28;32.33;;;11.38;;
44145;SDS011;29809;52.432;4.780;2023-03-03T06:45:53;29.75;;;10.63;;
44145;SDS011;29809;52.432;4.780;2023-03-03T06:48:19;24.27;;;10.05;;
44145;SDS011;29809;52.432;4.780;2023-03-03T06:50:47;34.83;;;11.00;;
44145;SDS011;29809;52.432;4.780;2023-03-03T06:53:13;19.55;;;9.13;;
44145;SDS011;29809;52.432;4.780;2023-03-03T06:55:38;18.80;;;8.43;;
44145;SDS011;29809;52.432;4.780;2023-03-03T06:58:08;17.60;;;8.32;;
44145;SDS011;29809;52.432;4.780;2023-03-03T07:00:35;13.23;;;5.63;;
44145;SDS011;29809;52.432;4.780;2023-03-03T07:03:21;9.45;;;4.82;;
44145;SDS011;29809;52.432;4.780;2023-03-03T07:05:45;10.60;;;5.32;;
44145;SDS011;29809;52.432;4.780;2023-03-03T07:08:12;9.38;;;4.63;;
44145;SDS011;29809;52.432;4.780;2023-03-03T07:10:38;11.65;;;5.20;;
44145;SDS011;29809;52.432;4.780;2023-03-03T07:15:41;10.70;;;4.82;;
44145;SDS011;29809;52.432;4.780;2023-03-03T07:18:10;9.45;;;4.60;;
44145;SDS011;29809;52.432;4.780;2023-03-03T07:20:43;11.65;;;4.47;;
44145;SDS011;29809;52.432;4.780;2023-03-03T07:23:31;9.05;;;4.28;;
44145;SDS011;29809;52.432;4.780;2023-03-03T07:25:54;8.73;;;4.45;;
44145;SDS011;29809;52.432;4.780;2023-03-03T07:28:26;11.50;;;4.15;;
44145;SDS011;29809;52.432;4.780;2023-03-03T07:30:52;10.15;;;4.30;;
44145;SDS011;29809;52.432;4.780;2023-03-03T07:33:28;13.30;;;4.13;;
44145;SDS011;29809;52.432;4.780;2023-03-03T07:35:58;7.45;;;3.72;;
44145;SDS011;29809;52.432;4.780;2023-03-03T07:38:34;5.63;;;3.60;;
44145;SDS011;29809;52.432;4.780;2023-03-03T07:41:00;8.05;;;3.55;;
44145;SDS011;29809;52.432;4.780;2023-03-03T07:45:52;5.13;;;3.25;;
44145;SDS011;29809;52.432;4.780;2023-03-03T07:48:23;4.68;;;3.63;;
44145;SDS011;29809;52.432;4.780;2023-03-03T07:50:49;5.88;;;2.90;;
44145;SDS011;29809;52.432;4.780;2023-03-03T07:53:21;6.07;;;3.92;;
44145;SDS011;29809;52.432;4.780;2023-03-03T07:55:48;4.10;;;2.88;;
44145;SDS011;29809;52.432;4.780;2023-03-03T08:03:09;5.25;;;3.38;;
44145;SDS011;29809;52.432;4.780;2023-03-03T08:05:36;3.63;;;2.90;;
44145;SDS011;29809;52.432;4.780;2023-03-03T08:13:06;4.72;;;3.35;;
44145;SDS011;29809;52.432;4.780;2023-03-03T08:15:35;7.00;;;3.22;;
44145;SDS011;29809;52.432;4.780;2023-03-03T08:18:00;5.97;;;3.15;;
44145;SDS011;29809;52.432;4.780;2023-03-03T08:20:44;3.72;;;3.22;;
44145;SDS011;29809;52.432;4.780;2023-03-03T08:23:10;3.42;;;3.05;;
44145;SDS011;29809;52.432;4.780;2023-03-03T08:25:36;4.70;;;3.70;;
44145;SDS011;29809;52.432;4.780;2023-03-03T08:28:02;3.40;;;3.08;;
44145;SDS011;29809;52.432;4.780;2023-03-03T08:30:27;3.95;;;3.13;;
44145;SDS011;29809;52.432;4.780;2023-03-03T08:32:52;5.15;;;3.65;;
44145;SDS011;29809;52.432;4.780;2023-03-03T08:35:17;4.43;;;3.25;;
44145;SDS011;29809;52.432;4.780;2023-03-03T08:37:43;5.13;;;3.40;;
44145;SDS011;29809;52.432;4.780;2023-03-03T08:40:08;3.58;;;2.97;;
44145;SDS011;29809;52.432;4.780;2023-03-03T08:42:34;3.97;;;3.10;;
44145;SDS011;29809;52.432;4.780;2023-03-03T08:44:59;3.72;;;3.05;;
44145;SDS011;29809;52.432;4.780;2023-03-03T08:47:24;3.55;;;3.25;;
44145;SDS011;29809;52.432;4.780;2023-03-03T08:49:49;4.32;;;3.20;;
44145;SDS011;29809;52.432;4.780;2023-03-03T08:52:18;4.90;;;3.10;;
44145;SDS011;29809;52.432;4.780;2023-03-03T08:54:43;4.60;;;2.97;;
44145;SDS011;29809;52.432;4.780;2023-03-03T08:57:11;3.10;;;2.80;;
44145;SDS011;29809;52.432;4.780;2023-03-03T08:59:37;3.80;;;2.50;;
44145;SDS011;29809;52.432;4.780;2023-03-03T09:02:03;3.47;;;3.17;;
44145;SDS011;29809;52.432;4.780;2023-03-03T09:04:29;3.15;;;2.85;;
44145;SDS011;29809;52.432;4.780;2023-03-03T09:06:54;3.33;;;2.65;;
44145;SDS011;29809;52.432;4.780;2023-03-03T09:09:19;2.90;;;2.70;;
44145;SDS011;29809;52.432;4.780;2023-03-03T09:11:45;4.88;;;2.50;;
44145;SDS011;29809;52.432;4.780;2023-03-03T09:14:17;2.47;;;2.22;;
44145;SDS011;29809;52.432;4.780;2023-03-03T09:16:50;2.90;;;2.60;;
44145;SDS011;29809;52.432;4.780;2023-03-03T09:19:18;2.85;;;2.28;;
44145;SDS011;29809;52.432;4.780;2023-03-03T09:21:44;3.10;;;2.45;;
44145;SDS011;29809;52.432;4.780;2023-03-03T09:24:15;2.85;;;2.08;;
44145;SDS011;29809;52.432;4.780;2023-03-03T09:26:46;2.70;;;2.05;;
44145;SDS011;29809;52.432;4.780;2023-03-03T09:36:42;2.30;;;1.85;;
44145;SDS011;29809;52.432;4.780;2023-03-03T10:00:45;1.33;;;1.23;;
44145;SDS011;29809;52.432;4.780;2023-03-03T10:11:12;1.73;;;1.48;;
44145;SDS011;29809;52.432;4.780;2023-03-03T10:19:19;2.53;;;1.40;;
44145;SDS011;29809;52.432;4.780;2023-03-03T10:22:15;2.30;;;1.40;;
44145;SDS011;29809;52.432;4.780;2023-03-03T10:24:40;1.25;;;1.13;;
44145;SDS011;29809;52.432;4.780;2023-03-03T10:32:30;1.88;;;1.10;;
44145;SDS011;29809;52.432;4.780;2023-03-03T10:47:39;1.88;;;1.20;;
44145;SDS011;29809;52.432;4.780;2023-03-03T10:55:05;3.25;;;1.65;;
44145;SDS011;29809;52.432;4.780;2023-03-03T11:00:15;1.55;;;0.90;;
44145;SDS011;29809;52.432;4.780;2023-03-03T11:07:55;4.80;;;1.13;;
44145;SDS011;29809;52.432;4.780;2023-03-03T11:13:28;1.25;;;0.90;;
44145;SDS011;29809;52.432;4.780;2023-03-03T11:16:03;0.95;;;0.70;;
44145;SDS011;29809;52.432;4.780;2023-03-03T11:33:20;1.00;;;0.68;;
44145;SDS011;29809;52.432;4.780;2023-03-03T11:43:40;0.82;;;0.70;;
44145;SDS011;29809;52.432;4.780;2023-03-03T11:46:17;0.80;;;0.70;;
44145;SDS011;29809;52.432;4.780;2023-03-03T11:48:46;0.68;;;0.68;;
44145;SDS011;29809;52.432;4.780;2023-03-03T11:51:18;1.10;;;0.93;;
44145;SDS011;29809;52.432;4.780;2023-03-03T11:56:24;0.80;;;0.60;;
44145;SDS011;29809;52.432;4.780;2023-03-03T12:01:26;0.90;;;0.80;;
44145;SDS011;29809;52.432;4.780;2023-03-03T12:03:56;0.98;;;0.80;;
44145;SDS011;29809;52.432;4.780;2023-03-03T12:06:31;1.35;;;0.80;;
44145;SDS011;29809;52.432;4.780;2023-03-03T12:13:53;0.75;;;0.73;;
44145;SDS011;29809;52.432;4.780;2023-03-03T12:16:27;0.90;;;0.82;;
44145;SDS011;29809;52.432;4.780;2023-03-03T12:27:42;1.00;;;0.77;;
44145;SDS011;29809;52.432;4.780;2023-03-03T12:32:52;1.35;;;0.70;;
44145;SDS011;29809;52.432;4.780;2023-03-03T12:35:29;0.60;;;0.60;;
44145;SDS011;29809;52.432;4.780;2023-03-03T12:37:58;0.73;;;0.50;;
44145;SDS011;29809;52.432;4.780;2023-03-03T12:40:34;1.33;;;0.63;;
44145;SDS011;29809;52.432;4.780;2023-03-03T12:43:02;0.68;;;0.65;;
44145;SDS011;29809;52.432;4.780;2023-03-03T12:47:59;1.00;;;0.75;;
44145;SDS011;29809;52.432;4.780;2023-03-03T12:55:40;0.88;;;0.50;;
44145;SDS011;29809;52.432;4.780;2023-03-03T12:58:22;2.33;;;0.80;;
44145;SDS011;29809;52.432;4.780;2023-03-03T13:03:31;0.60;;;0.60;;
44145;SDS011;29809;52.432;4.780;2023-03-03T13:06:05;0.70;;;0.60;;
44145;SDS011;29809;52.432;4.780;2023-03-03T13:14:16;1.50;;;0.70;;
44145;SDS011;29809;52.432;4.780;2023-03-03T13:19:36;0.65;;;0.65;;
44145;SDS011;29809;52.432;4.780;2023-03-03T13:22:12;1.23;;;0.73;;
44145;SDS011;29809;52.432;4.780;2023-03-03T13:27:15;0.63;;;0.60;;
44145;SDS011;29809;52.432;4.780;2023-03-03T13:29:41;1.00;;;0.60;;
44145;SDS011;29809;52.432;4.780;2023-03-03T13:32:08;1.85;;;0.75;;
44145;SDS011;29809;52.432;4.780;2023-03-03T13:34:57;0.70;;;0.70;;
44145;SDS011;29809;52.432;4.780;2023-03-03T13:37:30;0.60;;;0.60;;
44145;SDS011;29809;52.432;4.780;2023-03-03T13:45:16;1.00;;;0.80;;
44145;SDS011;29809;52.432;4.780;2023-03-03T13:48:07;0.55;;;0.50;;
44145;SDS011;29809;52.432;4.780;2023-03-03T13:51:01;0.90;;;0.80;;
44145;SDS011;29809;52.432;4.780;2023-03-03T13:56:04;1.35;;;0.43;;
44145;SDS011;29809;52.432;4.780;2023-03-03T13:58:38;0.52;;;0.52;;
44145;SDS011;29809;52.432;4.780;2023-03-03T14:01:23;0.47;;;0.47;;
44145;SDS011;29809;52.432;4.780;2023-03-03T14:04:04;0.70;;;0.60;;
44145;SDS011;29809;52.432;4.780;2023-03-03T14:06:30;1.13;;;0.70;;
44145;SDS011;29809;52.432;4.780;2023-03-03T14:09:07;0.55;;;0.55;;
44145;SDS011;29809;52.432;4.780;2023-03-03T14:11:48;1.45;;;0.65;;
44145;SDS011;29809;52.432;4.780;2023-03-03T14:19:11;0.55;;;0.50;;
44145;SDS011;29809;52.432;4.780;2023-03-03T14:21:39;1.00;;;0.60;;
44145;SDS011;29809;52.432;4.780;2023-03-03T14:24:17;0.40;;;0.40;;
44145;SDS011;29809;52.432;4.780;2023-03-03T14:26:49;1.02;;;0.70;;
44145;SDS011;29809;52.432;4.780;2023-03-03T14:31:43;0.75;;;0.52;;
44145;SDS011;29809;52.432;4.780;2023-03-03T14:39:39;1.70;;;0.60;;
44145;SDS011;29809;52.432;4.780;2023-03-03T14:42:10;1.17;;;0.55;;
44145;SDS011;29809;52.432;4.780;2023-03-03T14:44:37;0.40;;;0.40;;
44145;SDS011;29809;52.432;4.780;2023-03-03T14:47:22;0.60;;;0.40;;
44145;SDS011;29809;52.432;4.780;2023-03-03T14:49:47;1.35;;;0.70;;
44145;SDS011;29809;52.432;4.780;2023-03-03T14:54:39;1.42;;;0.80;;
44145;SDS011;29809;52.432;4.780;2023-03-03T14:57:12;1.83;;;0.93;;
44145;SDS011;29809;52.432;4.780;2023-03-03T14:59:39;1.38;;;1.00;;
44145;SDS011;29809;52.432;4.780;2023-03-03T15:04:43;1.58;;;1.00;;
44145;SDS011;29809;52.432;4.780;2023-03-03T15:09:52;1.25;;;1.02;;
44145;SDS011;29809;52.432;4.780;2023-03-03T15:12:19;1.50;;;1.00;;
44145;SDS011;29809;52.432;4.780;2023-03-03T15:14:45;1.45;;;1.20;;
44145;SDS011;29809;52.432;4.780;2023-03-03T15:20:19;2.78;;;1.48;;
44145;SDS011;29809;52.432;4.780;2023-03-03T15:28:00;2.35;;;1.30;;
44145;SDS011;29809;52.432;4.780;2023-03-03T15:30:32;3.53;;;1.27;;
44145;SDS011;29809;52.432;4.780;2023-03-03T15:33:09;1.30;;;1.20;;
44145;SDS011;29809;52.432;4.780;2023-03-03T15:45:40;1.38;;;1.05;;
44145;SDS011;29809;52.432;4.780;2023-03-03T15:50:50;2.55;;;1.20;;
44145;SDS011;29809;52.432;4.780;2023-03-03T16:03:37;3.83;;;1.27;;
44145;SDS011;29809;52.432;4.780;2023-03-03T16:06:10;2.67;;;1.20;;
44145;SDS011;29809;52.432;4.780;2023-03-03T16:29:06;2.85;;;1.27;;
44145;SDS011;29809;52.432;4.780;2023-03-03T16:31:36;3.65;;;1.67;;
44145;SDS011;29809;52.432;4.780;2023-03-03T16:39:02;3.13;;;1.40;;
44145;SDS011;29809;52.432;4.780;2023-03-03T16:41:34;2.72;;;1.27;;
44145;SDS011;29809;52.432;4.780;2023-03-03T16:46:37;1.55;;;0.88;;
44145;SDS011;29809;52.432;4.780;2023-03-03T16:52:22;5.72;;;1.90;;
44145;SDS011;29809;52.432;4.780;2023-03-03T16:54:33;5.63;;;1.85;;
44145;SDS011;29809;52.432;4.780;2023-03-03T16:57:07;7.03;;;1.73;;
44145;SDS011;29809;52.432;4.780;2023-03-03T16:59:38;7.68;;;2.15;;
44145;SDS011;29809;52.432;4.780;2023-03-03T17:05:00;4.85;;;1.40;;
44145;SDS011;29809;52.432;4.780;2023-03-03T17:10:07;4.35;;;1.67;;
44145;SDS011;29809;52.432;4.780;2023-03-03T17:17:41;3.00;;;1.65;;
44145;SDS011;29809;52.432;4.780;2023-03-03T17:20:26;5.00;;;1.63;;
44145;SDS011;29809;52.432;4.780;2023-03-03T17:25:32;5.32;;;1.50;;
44145;SDS011;29809;52.432;4.780;2023-03-03T17:28:03;7.15;;;1.73;;
44145;SDS011;29809;52.432;4.780;2023-03-03T17:43:26;4.28;;;1.48;;
44145;SDS011;29809;52.432;4.780;2023-03-03T17:45:54;3.80;;;1.73;;
44145;SDS011;29809;52.432;4.780;2023-03-03T17:56:44;7.65;;;1.75;;
44145;SDS011;29809;52.432;4.780;2023-03-03T18:04:15;4.88;;;1.42;;
44145;SDS011;29809;52.432;4.780;2023-03-03T18:09:58;3.85;;;1.65;;
44145;SDS011;29809;52.432;4.780;2023-03-03T18:15:08;2.78;;;1.40;;
44145;SDS011;29809;52.432;4.780;2023-03-03T18:21:09;3.28;;;1.65;;
44145;SDS011;29809;52.432;4.780;2023-03-03T18:28:43;3.13;;;1.40;;
44145;SDS011;29809;52.432;4.780;2023-03-03T18:31:31;3.60;;;1.77;;
44145;SDS011;29809;52.432;4.780;2023-03-03T18:34:06;3.85;;;1.70;;
44145;SDS011;29809;52.432;4.780;2023-03-03T18:38:57;3.67;;;1.65;;
44145;SDS011;29809;52.432;4.780;2023-03-03T18:41:27;4.93;;;1.55;;
44145;SDS011;29809;52.432;4.780;2023-03-03T18:43:59;5.75;;;2.00;;
44145;SDS011;29809;52.432;4.780;2023-03-03T18:48:51;4.35;;;1.85;;
44145;SDS011;29809;52.432;4.780;2023-03-03T18:53:58;4.68;;;1.77;;
44145;SDS011;29809;52.432;4.780;2023-03-03T18:57:25;5.13;;;2.00;;
44145;SDS011;29809;52.432;4.780;2023-03-03T19:02:23;6.38;;;1.92;;
44145;SDS011;29809;52.432;4.780;2023-03-03T19:04:53;6.20;;;2.45;;
44145;SDS011;29809;52.432;4.780;2023-03-03T19:12:41;3.67;;;2.10;;
44145;SDS011;29809;52.432;4.780;2023-03-03T19:17:51;3.45;;;2.00;;
44145;SDS011;29809;52.432;4.780;2023-03-03T19:20:17;3.50;;;1.70;;
44145;SDS011;29809;52.432;4.780;2023-03-03T19:27:56;4.40;;;1.90;;
44145;SDS011;29809;52.432;4.780;2023-03-03T19:30:55;5.00;;;2.20;;
44145;SDS011;29809;52.432;4.780;2023-03-03T19:33:27;5.60;;;2.70;;
44145;SDS011;29809;52.432;4.780;2023-03-03T19:35:58;8.48;;;2.80;;
44145;SDS011;29809;52.432;4.780;2023-03-03T19:43:46;4.07;;;2.63;;
44145;SDS011;29809;52.432;4.780;2023-03-03T19:51:46;5.82;;;2.35;;
44145;SDS011;29809;52.432;4.780;2023-03-03T19:54:26;4.30;;;2.08;;
44145;SDS011;29809;52.432;4.780;2023-03-03T19:56:57;6.53;;;2.65;;
44145;SDS011;29809;52.432;4.780;2023-03-03T19:59:32;4.55;;;2.45;;
44145;SDS011;29809;52.432;4.780;2023-03-03T20:04:52;4.15;;;2.42;;
44145;SDS011;29809;52.432;4.780;2023-03-03T20:15:13;4.22;;;2.05;;
44145;SDS011;29809;52.432;4.780;2023-03-03T20:30:17;5.38;;;2.25;;
44145;SDS011;29809;52.432;4.780;2023-03-03T20:40:27;11.23;;;3.53;;
44145;SDS011;29809;52.432;4.780;2023-03-03T20:45:24;5.68;;;3.13;;
44145;SDS011;29809;52.432;4.780;2023-03-03T20:52:54;6.82;;;2.83;;
44145;SDS011;29809;52.432;4.780;2023-03-03T20:58:14;15.77;;;3.55;;
44145;SDS011;29809;52.432;4.780;2023-03-03T21:00:55;10.40;;;3.10;;
44145;SDS011;29809;52.432;4.780;2023-03-03T21:08:18;7.82;;;2.60;;
44145;SDS011;29809;52.432;4.780;2023-03-03T21:10:44;6.45;;;2.08;;
44145;SDS011;29809;52.432;4.780;2023-03-03T21:13:26;6.40;;;2.75;;
44145;SDS011;29809;52.432;4.780;2023-03-03T21:16:04;6.40;;;2.33;;
44145;SDS011;29809;52.432;4.780;2023-03-03T21:18:30;5.88;;;2.75;;
44145;SDS011;29809;52.432;4.780;2023-03-03T21:20:56;3.88;;;2.25;;
44145;SDS011;29809;52.432;4.780;2023-03-03T21:23:21;6.55;;;2.40;;
44145;SDS011;29809;52.432;4.780;2023-03-03T21:25:50;4.72;;;2.13;;
44145;SDS011;29809;52.432;4.780;2023-03-03T21:28:17;4.75;;;1.98;;